REC weather

Guararapes - Gilberto Freyre International Airport
Recife, Pernambuco, Brazil

Public forecast

Using degrees Celsius for public forecast. Weather courtesy of forecast.io.

Current aviation weather report (METAR) for Guararapes - Gilberto Freyre International Airport

Retrieved 2019/10/19 10:00 UTC (43 minutes ago):

SBRF 191000Z 10005KT 050V130 9999 SCT025 BKN060 26/21 Q1014

Aviation forecast (TAF) for Guararapes - Gilberto Freyre International Airport

Retrieved 2019/10/19 06:31 UTC (4 hours ago):

TAF SBRF 190400Z 1906/2006 12011KT 8000 SCT010 SCT018 TN24/1908Z TX29/1915Z BECMG 1913/1915 12015KT BECMG 1923/1924 12009KT RMK PEU